createdAt,value
2017-11-16T04:32:02.192Z,32.28
2017-11-16T04:34:29.795Z,40.47
2017-11-16T04:36:57.466Z,37.35
2017-11-16T04:39:25.815Z,42.17
2017-11-16T04:41:53.444Z,39.55
2017-11-16T04:44:21.035Z,41.33
2017-11-16T04:46:48.622Z,45.63
2017-11-16T04:49:16.995Z,51.45
2017-11-16T04:51:45.495Z,70.47
2017-11-16T04:54:13.102Z,72.07
2017-11-16T04:56:40.687Z,62.60
2017-11-16T04:59:08.311Z,85.85
2017-11-16T05:01:35.916Z,90.82
2017-11-16T05:04:04.290Z,89.57
2017-11-16T05:06:32.679Z,99.47
2017-11-16T05:09:01.050Z,91.50
2017-11-16T05:11:29.398Z,109.03
2017-11-16T05:13:57.086Z,85.87
2017-11-16T05:16:25.434Z,81.30
2017-11-16T05:18:53.180Z,104.25
2017-11-16T05:21:20.786Z,70.47
2017-11-16T05:23:49.214Z,108.70
2017-11-16T05:26:16.834Z,124.53
2017-11-16T05:28:45.178Z,87.65
2017-11-16T05:31:12.758Z,146.13
2017-11-16T05:33:41.239Z,105.22
2017-11-16T05:36:09.623Z,117.32
2017-11-16T05:38:37.977Z,188.62
2017-11-16T05:41:05.654Z,232.70
2017-11-16T05:43:34.040Z,163.62
2017-11-16T05:46:02.392Z,185.65
2017-11-16T05:48:30.069Z,139.50
2017-11-16T05:50:58.427Z,144.57
2017-11-16T05:53:26.010Z,148.87
2017-11-16T05:55:54.383Z,145.20
2017-11-16T05:58:22.735Z,111.43
2017-11-16T06:00:50.342Z,148.10
2017-11-16T06:03:17.942Z,151.07
2017-11-16T06:05:45.555Z,174.90
2017-11-16T06:08:13.196Z,211.10
2017-11-16T06:10:41.551Z,140.12
2017-11-16T06:13:09.236Z,177.95
2017-11-16T06:15:37.615Z,126.57
2017-11-16T06:18:05.995Z,150.87
2017-11-16T06:20:34.478Z,224.43
2017-11-16T06:23:02.831Z,202.13
2017-11-16T06:25:30.518Z,286.67
2017-11-16T06:27:58.166Z,151.65
2017-11-16T06:30:26.554Z,161.02
2017-11-16T06:32:54.910Z,167.10
2017-11-16T06:35:22.529Z,133.35
2017-11-16T06:37:50.249Z,138.25
2017-11-16T06:40:18.603Z,111.93
2017-11-16T06:42:46.230Z,142.70
2017-11-16T06:45:13.874Z,76.95
2017-11-16T06:47:41.457Z,74.35
2017-11-16T06:50:09.071Z,92.72
2017-11-16T06:52:36.711Z,89.70
2017-11-16T06:55:05.060Z,100.12
2017-11-16T06:57:32.663Z,91.75
2017-11-16T07:00:00.292Z,64.55
2017-11-16T07:02:27.906Z,94.30
2017-11-16T07:04:55.530Z,42.30
2017-11-16T07:07:23.897Z,48.10
2017-11-16T07:09:51.506Z,39.50
2017-11-16T07:12:19.084Z,43.22
2017-11-16T07:14:46.699Z,29.37
2017-11-16T07:17:14.343Z,32.45
2017-11-16T07:19:42.694Z,32.47
2017-11-16T07:22:10.307Z,43.33
2017-11-16T07:24:37.891Z,107.43
2017-11-16T07:27:05.479Z,110.80
2017-11-16T07:29:33.158Z,77.15
2017-11-16T07:32:01.540Z,85.72
2017-11-16T07:34:30.019Z,67.93
2017-11-16T07:36:58.370Z,117.53
2017-11-16T07:39:26.059Z,230.87
2017-11-16T07:41:54.538Z,144.62
2017-11-16T07:44:22.912Z,136.10
2017-11-16T07:46:51.326Z,122.93
2017-11-16T07:49:18.910Z,139.25
2017-11-16T07:51:46.494Z,163.37
2017-11-16T07:54:14.098Z,114.93
2017-11-16T07:56:41.674Z,86.00
2017-11-16T07:59:09.287Z,140.48
2017-11-16T08:01:37.659Z,84.37
2017-11-16T08:04:06.019Z,143.30
2017-11-16T08:06:33.628Z,93.35
2017-11-16T08:09:01.275Z,59.35
2017-11-16T08:11:28.924Z,52.92
2017-11-16T08:13:57.318Z,75.57
2017-11-16T08:16:24.900Z,55.08
2017-11-16T08:18:52.514Z,73.87
2017-11-16T08:21:20.914Z,54.53
2017-11-16T08:23:48.495Z,45.38
2017-11-16T08:26:16.082Z,39.92
2017-11-16T08:28:43.696Z,53.63
2017-11-16T08:31:11.281Z,58.67
2017-11-16T08:33:38.987Z,50.20
2017-11-16T08:36:07.415Z,44.65
2017-11-16T08:38:34.998Z,48.05
2017-11-16T08:41:04.114Z,40.25
2017-11-16T08:43:32.500Z,45.22
2017-11-16T08:46:00.847Z,60.90
2017-11-16T08:48:28.480Z,56.20
2017-11-16T08:50:56.062Z,62.25
2017-11-16T08:53:23.643Z,58.47
2017-11-16T08:55:52.024Z,53.50
2017-11-16T08:58:20.371Z,49.70
2017-11-16T09:00:48.019Z,51.80
2017-11-16T09:03:15.602Z,54.05
2017-11-16T09:05:43.187Z,41.72
2017-11-16T09:08:11.574Z,42.60
2017-11-16T09:10:39.155Z,48.38
2017-11-16T09:13:06.741Z,53.95
2017-11-16T09:15:34.364Z,54.10
2017-11-16T09:18:01.953Z,50.10
2017-11-16T09:20:29.535Z,48.20
2017-11-16T09:22:57.147Z,44.78
2017-11-16T09:25:24.728Z,36.97
2017-11-16T09:27:52.385Z,42.13
2017-11-16T09:30:19.973Z,34.60
2017-11-16T09:32:47.662Z,42.92
2017-11-16T09:35:16.062Z,40.03
2017-11-16T09:37:43.701Z,38.22
2017-11-16T09:40:11.299Z,33.08
2017-11-16T09:42:39.011Z,37.55
2017-11-16T09:45:07.391Z,34.55
2017-11-16T09:47:35.741Z,36.65
2017-11-16T09:50:03.346Z,35.10
2017-11-16T09:52:30.930Z,32.03
2017-11-16T09:54:58.541Z,30.95
2017-11-16T09:57:26.931Z,28.73
2017-11-16T09:59:54.519Z,29.55
2017-11-16T10:02:22.103Z,24.40
2017-11-16T10:04:49.805Z,26.48
2017-11-16T10:07:18.174Z,26.50
2017-11-16T10:09:46.655Z,25.92
2017-11-16T10:12:15.031Z,26.85
2017-11-16T10:14:43.382Z,31.05
2017-11-16T10:17:11.071Z,27.48
2017-11-16T10:19:39.452Z,24.92
2017-11-16T10:22:07.804Z,26.58
2017-11-16T10:24:35.490Z,27.70
2017-11-16T10:27:03.864Z,26.50
2017-11-16T10:29:32.269Z,30.20
2017-11-16T10:31:59.897Z,34.70
2017-11-16T10:34:28.246Z,24.70
2017-11-16T10:36:55.837Z,22.80
2017-11-16T10:39:24.280Z,24.15
2017-11-16T10:41:51.907Z,24.98
2017-11-16T10:44:19.491Z,29.65
2017-11-16T10:46:47.094Z,25.08
2017-11-16T10:49:15.483Z,25.45
2017-11-16T10:51:43.071Z,23.83
2017-11-16T10:54:10.687Z,28.87
2017-11-16T10:56:39.143Z,23.95
2017-11-16T10:59:07.492Z,25.33
2017-11-16T11:01:35.208Z,29.70
2017-11-16T11:04:03.560Z,22.98
2017-11-16T11:06:31.242Z,23.48
2017-11-16T11:08:59.616Z,23.98
2017-11-16T11:11:28.003Z,22.15
2017-11-16T11:13:56.352Z,23.52
2017-11-16T11:16:23.975Z,24.37
2017-11-16T11:18:51.577Z,22.60
2017-11-16T11:21:19.250Z,30.05
2017-11-16T11:23:47.727Z,25.35
2017-11-16T11:26:16.115Z,22.77
2017-11-16T11:28:44.641Z,26.33
2017-11-16T11:31:12.255Z,24.12
2017-11-16T11:33:40.735Z,24.23
2017-11-16T11:36:09.115Z,24.70
2017-11-16T11:38:37.463Z,22.77
2017-11-16T11:41:05.148Z,26.40
2017-11-16T11:43:33.494Z,24.73
2017-11-16T11:46:01.129Z,23.62
2017-11-16T11:48:28.748Z,27.65
2017-11-16T11:50:57.227Z,27.05
2017-11-16T11:53:25.606Z,27.05
2017-11-16T11:55:53.235Z,26.75
2017-11-16T11:58:20.833Z,25.33
2017-11-16T12:00:48.443Z,22.98
2017-11-16T12:03:16.062Z,25.85
2017-11-16T12:05:43.644Z,22.67
2017-11-16T12:08:11.227Z,27.17
2017-11-16T12:10:38.831Z,23.48
2017-11-16T12:13:06.411Z,25.15
2017-11-16T12:15:34.034Z,23.45
2017-11-16T12:18:02.382Z,28.48
2017-11-16T12:20:30.119Z,22.55
2017-11-16T12:22:57.744Z,21.37
2017-11-16T12:25:25.328Z,21.55
2017-11-16T12:27:52.946Z,20.70
2017-11-16T12:30:21.320Z,22.65
2017-11-16T12:32:49.709Z,20.05
2017-11-16T12:35:17.363Z,19.80
2017-11-16T12:37:45.814Z,19.05
2017-11-16T12:40:13.395Z,23.80
2017-11-16T12:42:41.753Z,23.87
2017-11-16T12:45:09.438Z,21.20
2017-11-16T12:47:37.788Z,22.27
2017-11-16T12:50:06.020Z,27.27
2017-11-16T12:52:33.649Z,24.30
2017-11-16T12:55:02.019Z,31.98
2017-11-16T12:57:30.417Z,30.58
2017-11-16T12:59:58.070Z,25.15
2017-11-16T13:02:25.679Z,29.05
2017-11-16T13:04:53.302Z,23.42
2017-11-16T13:07:20.934Z,27.75
2017-11-16T13:09:49.414Z,25.70
2017-11-16T13:12:17.801Z,24.45
2017-11-16T13:14:46.174Z,27.35
2017-11-16T13:17:14.544Z,34.35
2017-11-16T13:19:42.131Z,24.80
2017-11-16T13:22:09.775Z,28.90
2017-11-16T13:24:38.127Z,27.08
2017-11-16T13:27:07.219Z,25.98
2017-11-16T13:29:34.827Z,36.58
2017-11-16T13:32:02.468Z,32.97
2017-11-16T13:34:30.943Z,27.87
2017-11-16T13:36:59.291Z,31.10
2017-11-16T13:39:26.879Z,26.98
2017-11-16T13:41:55.283Z,28.65
2017-11-16T13:44:22.972Z,28.80
2017-11-16T13:46:50.563Z,34.03
2017-11-16T13:49:18.239Z,32.45
2017-11-16T13:51:46.619Z,30.20
2017-11-16T13:54:15.023Z,28.33
2017-11-16T13:56:42.612Z,31.77
2017-11-16T13:59:10.363Z,33.75
2017-11-16T14:01:37.990Z,35.30
2017-11-16T14:04:05.626Z,31.33
2017-11-16T14:06:33.981Z,31.12
2017-11-16T14:09:01.587Z,39.08
2017-11-16T14:11:29.228Z,30.42
2017-11-16T14:13:57.598Z,32.65
2017-11-16T14:16:25.970Z,28.98
2017-11-16T14:18:53.559Z,29.08
2017-11-16T14:21:21.180Z,30.33
2017-11-16T14:23:48.855Z,28.00
2017-11-16T14:26:17.206Z,33.20
2017-11-16T14:28:44.850Z,29.60
2017-11-16T14:31:12.427Z,32.30
2017-11-16T14:33:40.014Z,32.15
2017-11-16T14:36:08.503Z,30.88
2017-11-16T14:38:36.870Z,30.55
2017-11-16T14:41:05.356Z,31.37
2017-11-16T14:43:33.711Z,31.87
2017-11-16T14:46:01.291Z,31.37
2017-11-16T14:48:29.670Z,34.03
2017-11-16T14:50:58.029Z,36.13
2017-11-16T14:53:26.427Z,33.13
2017-11-16T14:55:54.820Z,34.33
2017-11-16T14:58:22.407Z,40.85
2017-11-16T15:00:49.992Z,36.72
2017-11-16T15:03:17.602Z,35.42
2017-11-16T15:05:45.187Z,36.42
2017-11-16T15:08:12.899Z,40.00
2017-11-16T15:10:41.272Z,35.95
2017-11-16T15:13:09.623Z,39.47
2017-11-16T15:15:37.306Z,41.47
2017-11-16T15:18:05.660Z,39.90
2017-11-16T15:20:33.283Z,38.53
2017-11-16T15:23:00.899Z,39.75
2017-11-16T15:25:29.282Z,43.35
2017-11-16T15:27:57.656Z,44.63
2017-11-16T15:30:26.009Z,44.10
2017-11-16T15:32:53.655Z,48.00
2017-11-16T15:35:21.256Z,47.95
2017-11-16T15:37:49.606Z,44.63
2017-11-16T15:40:17.295Z,34.20
2017-11-16T15:42:45.699Z,40.70
2017-11-16T15:45:13.332Z,36.85
2017-11-16T15:47:41.711Z,37.63
2017-11-16T15:50:10.112Z,37.63
2017-11-16T15:52:37.754Z,30.88
2017-11-16T15:55:05.405Z,32.08
2017-11-16T15:57:33.812Z,37.42
2017-11-16T16:00:01.391Z,32.08
2017-11-16T16:02:28.974Z,34.67
2017-11-16T16:04:56.584Z,34.65
2017-11-16T16:07:24.223Z,42.40
2017-11-16T16:09:52.576Z,48.85
2017-11-16T16:12:20.188Z,36.22
2017-11-16T16:14:47.771Z,42.62
2017-11-16T16:17:15.376Z,31.58
2017-11-16T16:19:43.736Z,45.12
2017-11-16T16:22:11.338Z,45.38
2017-11-16T16:24:38.971Z,43.45
2017-11-16T16:27:07.331Z,54.33
2017-11-16T16:29:35.010Z,48.25
2017-11-16T16:32:03.388Z,47.67
2017-11-16T16:34:31.739Z,48.30
2017-11-16T16:36:59.350Z,45.90
2017-11-16T16:39:26.933Z,48.28
2017-11-16T16:41:54.539Z,41.20
2017-11-16T16:44:22.941Z,38.28
2017-11-16T16:46:50.535Z,37.78
2017-11-16T16:49:18.115Z,42.78
2017-11-16T16:51:45.798Z,44.20
2017-11-16T16:54:14.159Z,48.42
2017-11-16T16:56:41.765Z,39.45
2017-11-16T16:59:09.476Z,40.80
2017-11-16T17:01:37.155Z,39.80
2017-11-16T17:04:05.501Z,55.40
2017-11-16T17:06:33.124Z,64.55
2017-11-16T17:09:00.855Z,50.70
2017-11-16T17:11:28.524Z,40.90
2017-11-16T17:13:56.172Z,38.15
2017-11-16T17:16:24.647Z,38.40
2017-11-16T17:18:52.996Z,41.67
2017-11-16T17:21:20.637Z,45.30
2017-11-16T17:23:48.359Z,41.25
2017-11-16T17:26:15.951Z,39.55
2017-11-16T17:28:43.534Z,44.03
2017-11-16T17:31:11.154Z,39.30
2017-11-16T17:33:38.792Z,39.65
2017-11-16T17:36:07.269Z,36.72
2017-11-16T17:38:35.623Z,40.70
2017-11-16T17:41:03.208Z,44.33
2017-11-16T17:43:31.578Z,39.55
2017-11-16T17:45:59.938Z,39.92
2017-11-16T17:48:27.635Z,44.53
2017-11-16T17:50:55.211Z,38.03
2017-11-16T17:53:22.799Z,40.75
2017-11-16T17:55:50.434Z,43.87
2017-11-16T17:58:18.060Z,45.42
2017-11-16T18:00:46.412Z,50.10
2017-11-16T18:03:14.052Z,44.55
2017-11-16T18:05:41.720Z,38.15
2017-11-16T18:08:09.313Z,41.28
2017-11-16T18:10:37.687Z,41.50
2017-11-16T18:13:06.071Z,290.38
2017-11-16T18:15:34.443Z,71.20
2017-11-16T18:18:02.843Z,45.70
2017-11-16T18:20:30.526Z,37.58
2017-11-16T18:22:58.122Z,46.85
2017-11-16T18:25:25.809Z,95.78
2017-11-16T18:27:54.247Z,45.45
2017-11-16T18:30:21.886Z,48.53
2017-11-16T18:32:49.498Z,41.85
2017-11-16T18:35:17.975Z,45.75
2017-11-16T18:37:46.318Z,40.80
2017-11-16T18:40:13.927Z,41.42
2017-11-16T18:42:41.516Z,46.95
2017-11-16T18:45:09.113Z,36.88
2017-11-16T18:47:36.764Z,38.58
2017-11-16T18:50:04.357Z,33.92
2017-11-16T18:52:31.977Z,34.42
2017-11-16T18:54:59.706Z,34.65
2017-11-16T18:57:27.358Z,43.78
2017-11-16T18:59:54.955Z,41.53
2017-11-16T19:02:23.379Z,35.92
2017-11-16T19:04:51.093Z,41.28
2017-11-16T19:07:18.764Z,32.20
2017-11-16T19:09:47.238Z,40.33
2017-11-16T19:12:14.927Z,31.67
2017-11-16T19:14:43.462Z,40.30
2017-11-16T19:17:11.170Z,41.63
2017-11-16T19:19:38.820Z,40.83
2017-11-16T19:22:07.273Z,38.60
2017-11-16T19:24:34.919Z,43.90
2017-11-16T19:27:02.713Z,35.45
2017-11-16T19:29:31.313Z,37.45
2017-11-16T19:31:59.138Z,34.50
2017-11-16T19:34:27.180Z,57.88
2017-11-16T19:36:55.068Z,40.12
2017-11-16T19:39:22.862Z,44.40
2017-11-16T19:41:50.731Z,46.25
2017-11-16T19:44:18.607Z,52.72
2017-11-16T19:46:46.481Z,50.55
2017-11-16T19:49:14.381Z,40.97
2017-11-16T19:51:42.288Z,47.50
2017-11-16T19:54:10.262Z,47.25
2017-11-16T19:56:38.160Z,48.85
2017-11-16T19:59:06.072Z,56.03
2017-11-16T20:01:34.758Z,55.60
2017-11-16T20:04:03.409Z,77.47
2017-11-16T20:06:31.346Z,52.17
2017-11-16T20:08:59.245Z,55.67
2017-11-16T20:11:27.173Z,55.95
2017-11-16T20:13:55.069Z,56.00
2017-11-16T20:16:22.983Z,58.35
2017-11-16T20:18:50.899Z,52.70
2017-11-16T20:21:18.797Z,63.55
2017-11-16T20:23:47.449Z,53.25
2017-11-16T20:26:15.359Z,51.28
2017-11-16T20:28:43.953Z,55.25
2017-11-16T20:31:12.589Z,60.08
2017-11-16T20:33:40.506Z,68.28
2017-11-16T20:36:08.344Z,63.03
2017-11-16T20:38:41.721Z,53.80
2017-11-16T20:41:24.240Z,48.53
2017-11-16T20:43:57.754Z,70.85
2017-11-16T20:46:31.164Z,64.40
2017-11-16T20:48:59.616Z,49.38
2017-11-16T20:51:37.183Z,60.75
2017-11-16T20:54:08.498Z,67.30
2017-11-16T20:56:36.900Z,85.70
2017-11-16T20:59:04.534Z,80.90
2017-11-16T21:01:32.956Z,79.28
2017-11-16T21:04:00.605Z,60.25
2017-11-16T21:06:28.229Z,57.10
2017-11-16T21:08:56.631Z,52.58
2017-11-16T21:11:24.253Z,55.45
2017-11-16T21:13:51.864Z,56.25
2017-11-16T21:16:19.450Z,56.47
2017-11-16T21:18:47.062Z,62.97
2017-11-16T21:21:15.415Z,70.75
2017-11-16T21:23:43.044Z,62.97
2017-11-16T21:26:10.636Z,68.07
2017-11-16T21:28:38.219Z,66.87
2017-11-16T21:31:06.591Z,83.18
2017-11-16T21:33:34.944Z,75.20
2017-11-16T21:36:02.582Z,70.40
2017-11-16T21:38:30.175Z,80.25
2017-11-16T21:40:58.527Z,69.15
2017-11-16T21:43:26.171Z,68.70
2017-11-16T21:45:53.759Z,64.37
2017-11-16T21:48:21.346Z,59.17
2017-11-16T21:50:49.723Z,58.05
2017-11-16T21:53:18.078Z,61.75
2017-11-16T21:55:46.464Z,70.25
2017-11-16T21:58:14.825Z,57.28
2017-11-16T22:00:42.446Z,55.88
2017-11-16T22:03:10.028Z,66.75
2017-11-16T22:05:37.612Z,55.63
2017-11-16T22:08:05.220Z,57.72
2017-11-16T22:10:32.808Z,59.35
2017-11-16T22:13:00.430Z,54.47
2017-11-16T22:15:28.014Z,60.90
2017-11-16T22:17:55.600Z,62.05
2017-11-16T22:20:23.232Z,53.00
2017-11-16T22:22:50.818Z,53.70
2017-11-16T22:25:18.406Z,52.28
2017-11-16T22:27:46.779Z,61.17
2017-11-16T22:30:15.127Z,61.10
2017-11-16T22:32:42.742Z,41.20
2017-11-16T22:35:10.350Z,54.58
2017-11-16T22:37:37.939Z,62.35
2017-11-16T22:40:06.317Z,58.42
2017-11-16T22:42:33.951Z,57.00
2017-11-16T22:45:01.540Z,57.50
2017-11-16T22:47:29.132Z,60.00
2017-11-16T22:49:56.747Z,66.30
2017-11-16T22:52:25.104Z,53.78
2017-11-16T22:54:52.698Z,55.33
2017-11-16T22:57:20.318Z,58.72
2017-11-16T22:59:47.911Z,72.03
2017-11-16T23:02:15.498Z,73.30
2017-11-16T23:04:43.103Z,56.63
2017-11-16T23:07:11.466Z,63.90
2017-11-16T23:09:39.111Z,75.82
2017-11-16T23:12:06.709Z,73.10
2017-11-16T23:14:35.067Z,78.28
2017-11-16T23:17:02.686Z,71.43
2017-11-16T23:19:30.274Z,73.20
2017-11-16T23:21:57.859Z,75.15
2017-11-16T23:24:26.279Z,73.85
2017-11-16T23:26:53.875Z,77.12
2017-11-16T23:29:21.467Z,77.93
